Time;durP1;ratioP1;P1;durP2;ratioP2;P2;SDS_P1;SDS_P2;PMS_P1;PMS_P2;Temp;Humidity;BMP_temperature;BMP_pressure;BME280_temperature;BME280_humidity;BME280_pressure;Samples;Min_cycle;Max_cycle;Signal;HPM_P1;HPM_P2
2023/08/19 00:00:43;;;;;;;2.10;1.20;;;;;;;;;;5011374;28;20306;-83
2023/08/19 00:03:10;;;;;;;1.88;1.77;;;;;;;;;;5010886;28;20216;-83
2023/08/19 00:05:38;;;;;;;1.08;1.08;;;;;;;;;;5011708;28;20228;-84
2023/08/19 00:08:10;;;;;;;3.15;1.20;;;;;;;;;;5011267;28;20203;-83
2023/08/19 00:10:39;;;;;;;1.45;1.35;;;;;;;;;;5011006;28;20221;-85
2023/08/19 00:13:08;;;;;;;2.13;1.42;;;;;;;;;;5011589;28;20608;-84
2023/08/19 00:15:37;;;;;;;3.72;1.38;;;;;;;;;;5011836;28;20203;-84
2023/08/19 00:18:06;;;;;;;1.55;1.45;;;;;;;;;;5011307;28;20209;-84
2023/08/19 00:20:34;;;;;;;1.20;1.20;;;;;;;;;;5011801;28;20653;-84
2023/08/19 00:23:02;;;;;;;1.10;1.10;;;;;;;;;;5011212;28;20284;-86
2023/08/19 00:25:33;;;;;;;2.55;1.13;;;;;;;;;;5010395;28;20212;-83
2023/08/19 00:28:04;;;;;;;2.45;1.17;;;;;;;;;;5012714;28;20203;-83
2023/08/19 00:30:33;;;;;;;2.42;1.48;;;;;;;;;;5011208;28;20197;-83
2023/08/19 00:33:04;;;;;;;1.48;1.23;;;;;;;;;;5010683;28;20225;-83
2023/08/19 00:35:36;;;;;;;1.50;1.40;;;;;;;;;;5012086;28;20197;-83
2023/08/19 00:38:05;;;;;;;1.52;1.45;;;;;;;;;;4993469;28;20319;-83
2023/08/19 00:40:37;;;;;;;1.40;1.30;;;;;;;;;;5011092;28;20205;-83
2023/08/19 00:43:07;;;;;;;1.60;1.50;;;;;;;;;;5012620;28;20189;-83
2023/08/19 00:45:36;;;;;;;2.17;1.60;;;;;;;;;;5012093;28;20223;-85
2023/08/19 00:48:06;;;;;;;2.05;1.90;;;;;;;;;;5012007;28;20205;-84
2023/08/19 00:50:33;;;;;;;1.40;1.40;;;;;;;;;;5031889;28;20200;-82
2023/08/19 00:53:03;;;;;;;1.75;1.65;;;;;;;;;;5030304;28;20232;-83
2023/08/19 00:55:34;;;;;;;0.70;0.70;;;;;;;;;;5010776;28;20264;-84
2023/08/19 00:58:03;;;;;;;1.85;1.67;;;;;;;;;;5011211;28;20231;-83
2023/08/19 01:00:34;;;;;;;1.17;1.17;;;;;;;;;;5009838;28;20328;-83
2023/08/19 01:03:28;;;;;;;1.52;1.48;;;;;;;;;;5009547;28;20642;-84
2023/08/19 01:06:03;;;;;;;2.65;1.02;;;;;;;;;;5011352;28;20307;-84
2023/08/19 01:08:38;;;;;;;1.77;1.40;;;;;;;;;;5010447;28;20227;-83
2023/08/19 01:11:15;;;;;;;1.75;1.65;;;;;;;;;;5010790;28;20329;-85
2023/08/19 01:16:45;;;;;;;1.40;1.27;;;;;;;;;;5007514;28;20263;-85
2023/08/19 01:19:19;;;;;;;2.15;1.50;;;;;;;;;;5012316;28;20200;-84
2023/08/19 01:21:49;;;;;;;1.55;1.48;;;;;;;;;;5011994;28;20232;-83
2023/08/19 01:24:19;;;;;;;1.65;1.65;;;;;;;;;;5010035;28;20193;-83
2023/08/19 01:26:50;;;;;;;1.50;1.40;;;;;;;;;;5010133;28;20197;-85
2023/08/19 01:29:22;;;;;;;1.27;1.27;;;;;;;;;;5009797;28;20220;-84
2023/08/19 01:31:51;;;;;;;1.25;1.13;;;;;;;;;;5010812;28;20688;-84
2023/08/19 01:34:22;;;;;;;1.58;1.40;;;;;;;;;;5011555;28;20256;-83
2023/08/19 01:36:51;;;;;;;1.23;1.23;;;;;;;;;;5011179;28;20566;-84
2023/08/19 01:39:21;;;;;;;1.50;1.40;;;;;;;;;;5010063;28;20201;-84
2023/08/19 01:41:51;;;;;;;10.35;1.33;;;;;;;;;;5011556;28;20231;-83
2023/08/19 01:44:22;;;;;;;1.42;1.25;;;;;;;;;;5010381;28;20646;-83
2023/08/19 01:46:51;;;;;;;1.50;1.40;;;;;;;;;;5011400;28;20200;-83
2023/08/19 01:49:20;;;;;;;1.33;1.33;;;;;;;;;;5009561;28;20343;-84
2023/08/19 01:51:48;;;;;;;1.75;1.38;;;;;;;;;;5008465;28;20221;-83
2023/08/19 01:54:18;;;;;;;1.67;1.60;;;;;;;;;;5008943;28;20295;-83
2023/08/19 01:56:48;;;;;;;1.50;1.40;;;;;;;;;;5009867;28;20204;-83
2023/08/19 01:59:21;;;;;;;4.20;2.08;;;;;;;;;;5008853;28;20275;-84
2023/08/19 02:01:53;;;;;;;1.58;1.58;;;;;;;;;;5009291;28;20577;-83
2023/08/19 02:04:23;;;;;;;1.60;1.50;;;;;;;;;;5009400;28;20264;-83
2023/08/19 02:06:51;;;;;;;1.77;1.65;;;;;;;;;;5009926;28;20648;-84
2023/08/19 02:09:20;;;;;;;1.60;1.50;;;;;;;;;;5008956;28;20327;-84
2023/08/19 02:11:48;;;;;;;1.90;1.80;;;;;;;;;;5009100;28;20252;-84
2023/08/19 02:14:19;;;;;;;7.47;1.98;;;;;;;;;;5009169;28;20235;-82
2023/08/19 02:16:49;;;;;;;1.35;1.35;;;;;;;;;;5009486;28;20303;-84
2023/08/19 02:19:18;;;;;;;1.23;1.13;;;;;;;;;;5008941;28;20548;-84
2023/08/19 02:21:48;;;;;;;1.35;1.35;;;;;;;;;;5009131;28;20215;-83
2023/08/19 02:24:16;;;;;;;1.60;1.50;;;;;;;;;;5009420;28;20274;-85
2023/08/19 02:26:45;;;;;;;1.80;1.70;;;;;;;;;;5009995;28;20196;-84
2023/08/19 02:29:14;;;;;;;1.45;1.45;;;;;;;;;;5009037;28;20201;-83
2023/08/19 02:31:43;;;;;;;2.03;1.92;;;;;;;;;;5009814;28;20605;-84
2023/08/19 02:34:13;;;;;;;1.75;1.65;;;;;;;;;;5012170;28;20298;-82
2023/08/19 02:36:42;;;;;;;2.10;1.88;;;;;;;;;;5012518;28;20206;-84
2023/08/19 02:39:13;;;;;;;1.67;1.58;;;;;;;;;;5012565;28;20200;-84
2023/08/19 02:41:42;;;;;;;1.45;1.45;;;;;;;;;;5014376;28;20197;-84
2023/08/19 02:44:11;;;;;;;1.30;1.30;;;;;;;;;;5014982;28;20204;-83
2023/08/19 02:46:39;;;;;;;1.42;1.38;;;;;;;;;;5014748;28;20208;-82
2023/08/19 02:49:10;;;;;;;1.83;1.73;;;;;;;;;;5014303;28;20215;-82
2023/08/19 02:51:44;;;;;;;1.25;1.25;;;;;;;;;;5014854;28;20189;-82
2023/08/19 02:54:12;;;;;;;2.78;1.77;;;;;;;;;;5013634;28;20224;-84
2023/08/19 02:56:42;;;;;;;1.80;1.70;;;;;;;;;;5013609;28;20209;-82
2023/08/19 02:59:11;;;;;;;1.60;1.50;;;;;;;;;;5012137;28;20620;-83
2023/08/19 03:01:40;;;;;;;1.63;1.63;;;;;;;;;;5012715;28;20304;-84
2023/08/19 03:04:10;;;;;;;1.42;1.42;;;;;;;;;;5012887;28;20203;-83
2023/08/19 03:06:41;;;;;;;1.48;1.48;;;;;;;;;;5013538;28;20200;-86
2023/08/19 03:09:11;;;;;;;1.90;1.80;;;;;;;;;;5012172;28;20220;-83
2023/08/19 03:11:41;;;;;;;2.00;1.90;;;;;;;;;;5012532;28;20623;-83
2023/08/19 03:14:09;;;;;;;3.47;1.63;;;;;;;;;;5011833;28;20430;-84
2023/08/19 03:16:38;;;;;;;1.73;1.63;;;;;;;;;;5012860;28;20207;-84
2023/08/19 03:19:07;;;;;;;4.75;2.20;;;;;;;;;;5012922;28;20215;-84
2023/08/19 03:21:38;;;;;;;3.75;1.77;;;;;;;;;;5012237;28;20208;-83
2023/08/19 03:24:07;;;;;;;2.83;1.60;;;;;;;;;;5012618;28;20667;-83
2023/08/19 03:26:36;;;;;;;1.75;1.75;;;;;;;;;;5012883;28;20646;-84
2023/08/19 03:29:06;;;;;;;4.70;1.70;;;;;;;;;;5012377;28;20764;-84
2023/08/19 03:31:35;;;;;;;1.50;1.40;;;;;;;;;;5011497;28;20208;-84
2023/08/19 03:34:04;;;;;;;2.55;2.05;;;;;;;;;;5010172;28;20239;-83
2023/08/19 03:36:33;;;;;;;1.73;1.63;;;;;;;;;;5010090;28;20208;-85
2023/08/19 03:39:06;;;;;;;2.25;1.83;;;;;;;;;;5011076;28;20597;-82
2023/08/19 03:41:36;;;;;;;2.00;1.90;;;;;;;;;;5009652;28;20678;-83
2023/08/19 03:44:06;;;;;;;1.77;1.67;;;;;;;;;;5008588;28;20197;-83
2023/08/19 03:46:35;;;;;;;1.92;1.83;;;;;;;;;;5011695;28;20526;-85
2023/08/19 03:49:06;;;;;;;1.95;1.85;;;;;;;;;;5012963;28;20212;-84
2023/08/19 03:51:33;;;;;;;1.50;1.42;;;;;;;;;;5011610;28;20708;-84
2023/08/19 03:54:06;;;;;;;2.00;1.65;;;;;;;;;;5011685;28;20224;-84
2023/08/19 03:56:35;;;;;;;1.27;1.27;;;;;;;;;;5012198;28;20677;-85
2023/08/19 03:59:03;;;;;;;2.95;1.58;;;;;;;;;;5015347;28;20264;-83
2023/08/19 04:01:33;;;;;;;1.80;1.70;;;;;;;;;;5018705;28;20200;-82
2023/08/19 04:04:03;;;;;;;1.67;1.65;;;;;;;;;;5014013;28;20624;-83
2023/08/19 04:06:32;;;;;;;2.13;1.95;;;;;;;;;;5011250;28;20200;-83
2023/08/19 04:09:02;;;;;;;2.55;2.35;;;;;;;;;;5012117;28;20299;-84
2023/08/19 04:11:33;;;;;;;1.80;1.70;;;;;;;;;;5011117;28;20768;-86
2023/08/19 04:14:03;;;;;;;2.50;1.80;;;;;;;;;;5011427;28;20251;-85
2023/08/19 04:16:31;;;;;;;1.58;1.50;;;;;;;;;;5011732;28;20601;-84
2023/08/19 04:19:03;;;;;;;1.80;1.75;;;;;;;;;;5012082;28;20294;-85
2023/08/19 04:21:32;;;;;;;1.75;1.65;;;;;;;;;;5011474;28;20208;-85
2023/08/19 04:24:06;;;;;;;2.20;2.03;;;;;;;;;;5010710;28;20212;-85
2023/08/19 04:26:35;;;;;;;1.27;1.27;;;;;;;;;;5010879;28;20196;-85
2023/08/19 04:29:03;;;;;;;2.60;2.00;;;;;;;;;;5010209;28;20201;-84
2023/08/19 04:31:33;;;;;;;1.55;1.45;;;;;;;;;;5011341;28;20211;-83
2023/08/19 04:34:03;;;;;;;2.88;1.92;;;;;;;;;;4993057;28;20640;-83
2023/08/19 04:36:30;;;;;;;2.58;1.77;;;;;;;;;;5010386;28;20270;-83
2023/08/19 04:38:59;;;;;;;3.83;2.20;;;;;;;;;;5011841;28;20303;-82
2023/08/19 04:41:30;;;;;;;2.95;1.58;;;;;;;;;;5014113;28;20638;-83
2023/08/19 04:44:00;;;;;;;2.97;1.80;;;;;;;;;;5012513;28;20200;-83
2023/08/19 04:46:32;;;;;;;1.90;1.70;;;;;;;;;;5011326;28;20245;-85
2023/08/19 04:49:00;;;;;;;2.25;2.15;;;;;;;;;;5011490;28;20618;-84
2023/08/19 04:51:34;;;;;;;2.65;1.65;;;;;;;;;;5011204;28;20208;-84
2023/08/19 04:54:03;;;;;;;1.80;1.73;;;;;;;;;;5011337;28;20211;-85
2023/08/19 04:56:33;;;;;;;2.28;2.08;;;;;;;;;;5010409;28;20228;-84
2023/08/19 04:59:04;;;;;;;2.10;2.00;;;;;;;;;;5010994;28;20249;-84
2023/08/19 05:01:33;;;;;;;2.10;2.00;;;;;;;;;;5011128;28;20219;-85
2023/08/19 05:04:02;;;;;;;2.00;1.90;;;;;;;;;;5012030;28;20203;-85
2023/08/19 05:06:31;;;;;;;1.63;1.63;;;;;;;;;;5012340;28;20287;-84
2023/08/19 05:09:05;;;;;;;2.40;2.20;;;;;;;;;;5032349;28;20330;-86
2023/08/19 05:11:35;;;;;;;2.08;1.98;;;;;;;;;;5029467;28;20671;-84
2023/08/19 05:14:04;;;;;;;3.40;1.92;;;;;;;;;;5029273;28;20203;-85
2023/08/19 05:16:32;;;;;;;2.30;2.10;;;;;;;;;;5030149;28;20207;-84
2023/08/19 05:19:06;;;;;;;1.60;1.60;;;;;;;;;;5029790;28;20606;-83
2023/08/19 05:21:36;;;;;;;3.70;1.95;;;;;;;;;;5030423;28;20261;-85
2023/08/19 05:24:08;;;;;;;5.75;2.30;;;;;;;;;;5026053;28;20203;-84
2023/08/19 05:26:46;;;;;;;2.20;2.10;;;;;;;;;;5017272;28;20211;-87
2023/08/19 05:29:18;;;;;;;1.90;1.80;;;;;;;;;;5028368;28;20287;-84
2023/08/19 05:31:47;;;;;;;2.00;1.90;;;;;;;;;;5030109;28;20192;-87
2023/08/19 05:34:15;;;;;;;2.30;2.10;;;;;;;;;;5030059;28;20735;-84
2023/08/19 05:36:44;;;;;;;2.47;1.65;;;;;;;;;;5030141;28;20208;-84
2023/08/19 05:39:15;;;;;;;1.80;1.70;;;;;;;;;;5031726;28;20582;-85
2023/08/19 05:41:44;;;;;;;2.05;1.95;;;;;;;;;;5029665;28;20636;-84
2023/08/19 05:44:14;;;;;;;2.10;2.00;;;;;;;;;;5029371;28;20223;-85
2023/08/19 05:46:44;;;;;;;1.88;1.77;;;;;;;;;;5029694;28;20208;-85
2023/08/19 05:49:13;;;;;;;1.80;1.80;;;;;;;;;;5015049;28;20627;-84
2023/08/19 05:51:46;;;;;;;1.80;1.70;;;;;;;;;;5010527;28;20598;-83
2023/08/19 05:54:28;;;;;;;2.55;2.17;;;;;;;;;;5011046;28;20207;-87
2023/08/19 05:56:58;;;;;;;1.75;1.70;;;;;;;;;;5014078;28;20211;-85
2023/08/19 05:59:27;;;;;;;2.20;2.00;;;;;;;;;;5029851;28;20200;-84
2023/08/19 06:01:59;;;;;;;1.30;1.30;;;;;;;;;;5018376;28;20231;-86
2023/08/19 06:04:28;;;;;;;1.98;1.88;;;;;;;;;;5030516;28;20279;-85
2023/08/19 06:06:56;;;;;;;2.20;2.10;;;;;;;;;;5030213;28;20293;-85
2023/08/19 06:09:23;;;;;;;1.90;1.80;;;;;;;;;;5029649;28;20216;-85
2023/08/19 06:11:56;;;;;;;1.52;1.42;;;;;;;;;;5029942;28;20960;-86
2023/08/19 06:14:36;;;;;;;2.20;2.00;;;;;;;;;;5033653;28;20693;-86
2023/08/19 06:17:05;;;;;;;4.68;2.03;;;;;;;;;;5035505;28;20227;-85
2023/08/19 06:19:38;;;;;;;1.92;1.83;;;;;;;;;;5031300;28;20223;-86
2023/08/19 06:22:06;;;;;;;2.08;1.98;;;;;;;;;;5031496;28;20223;-86
2023/08/19 06:24:36;;;;;;;1.50;1.40;;;;;;;;;;5030062;28;20732;-84
2023/08/19 06:27:05;;;;;;;1.60;1.58;;;;;;;;;;5028620;28;20204;-86
2023/08/19 06:29:34;;;;;;;1.33;1.33;;;;;;;;;;5029332;28;20211;-86
2023/08/19 06:32:03;;;;;;;1.65;1.55;;;;;;;;;;5017569;28;20599;-85
2023/08/19 06:34:38;;;;;;;1.80;1.70;;;;;;;;;;5029223;28;20208;-85
2023/08/19 06:37:15;;;;;;;4.22;1.48;;;;;;;;;;5030319;28;20230;-85
2023/08/19 06:39:44;;;;;;;1.42;1.30;;;;;;;;;;5021653;28;20297;-84
2023/08/19 06:42:17;;;;;;;1.80;1.70;;;;;;;;;;5034422;28;20295;-85
2023/08/19 06:44:49;;;;;;;1.35;1.35;;;;;;;;;;5032615;28;20200;-85
2023/08/19 06:47:21;;;;;;;1.20;1.20;;;;;;;;;;5032227;28;20212;-84
2023/08/19 06:49:50;;;;;;;3.30;1.92;;;;;;;;;;5030497;28;20188;-84
2023/08/19 06:52:21;;;;;;;1.58;1.58;;;;;;;;;;5029813;28;20204;-85
2023/08/19 06:55:08;;;;;;;1.60;1.60;;;;;;;;;;5030382;28;20232;-86
2023/08/19 06:57:38;;;;;;;1.40;1.40;;;;;;;;;;5027970;28;20204;-85
2023/08/19 07:00:09;;;;;;;1.55;1.48;;;;;;;;;;5032460;28;20200;-85
2023/08/19 07:02:53;;;;;;;1.23;1.23;;;;;;;;;;5033675;28;20205;-86
2023/08/19 07:05:26;;;;;;;3.38;1.60;;;;;;;;;;5031231;28;20212;-86
2023/08/19 07:07:58;;;;;;;1.98;1.42;;;;;;;;;;5030714;28;20214;-84
2023/08/19 07:10:26;;;;;;;1.50;1.50;;;;;;;;;;5030053;28;20224;-87
2023/08/19 07:12:58;;;;;;;1.48;1.38;;;;;;;;;;5028846;28;20664;-84
2023/08/19 07:18:48;;;;;;;1.33;1.30;;;;;;;;;;5030201;28;20174;-84
2023/08/19 07:21:19;;;;;;;1.40;1.30;;;;;;;;;;5035576;28;20196;-84
2023/08/19 07:23:49;;;;;;;1.40;1.30;;;;;;;;;;5022587;28;20644;-85
2023/08/19 07:26:21;;;;;;;1.27;1.25;;;;;;;;;;5035391;28;20677;-86
2023/08/19 07:28:54;;;;;;;1.35;1.35;;;;;;;;;;5033628;28;20228;-83
2023/08/19 07:31:24;;;;;;;6.88;1.98;;;;;;;;;;5019030;28;20267;-86
2023/08/19 07:33:54;;;;;;;2.03;1.13;;;;;;;;;;5014368;28;20204;-87
2023/08/19 07:36:24;;;;;;;1.55;1.45;;;;;;;;;;5023688;28;20231;-86
2023/08/19 07:38:53;;;;;;;1.58;1.50;;;;;;;;;;5034048;28;20212;-84
2023/08/19 07:41:21;;;;;;;1.10;1.10;;;;;;;;;;5032221;28;20760;-84
2023/08/19 07:43:50;;;;;;;1.85;1.75;;;;;;;;;;5033138;28;20208;-87
2023/08/19 07:46:29;;;;;;;1.23;1.23;;;;;;;;;;5033026;28;20746;-87
2023/08/19 07:49:01;;;;;;;3.03;1.20;;;;;;;;;;5032999;28;20279;-85
2023/08/19 07:51:33;;;;;;;1.10;1.10;;;;;;;;;;5033083;28;20219;-85
2023/08/19 07:54:02;;;;;;;1.17;1.17;;;;;;;;;;5033151;28;20204;-86
2023/08/19 07:56:32;;;;;;;0.85;0.85;;;;;;;;;;5032881;28;20242;-84
2023/08/19 07:59:03;;;;;;;1.00;1.00;;;;;;;;;;5034209;28;20200;-84
2023/08/19 08:01:35;;;;;;;3.10;1.55;;;;;;;;;;5034885;28;20310;-85
2023/08/19 08:04:03;;;;;;;1.25;1.25;;;;;;;;;;5035174;28;20342;-86
2023/08/19 08:06:33;;;;;;;1.17;1.17;;;;;;;;;;5032894;28;20199;-86
2023/08/19 08:09:01;;;;;;;1.45;1.40;;;;;;;;;;5034024;28;20275;-84
2023/08/19 08:11:30;;;;;;;1.70;1.60;;;;;;;;;;5033581;28;20282;-85
2023/08/19 08:13:59;;;;;;;2.70;2.35;;;;;;;;;;5043154;28;20200;-84
2023/08/19 08:16:26;;;;;;;1.42;1.40;;;;;;;;;;5047252;28;20224;-84
2023/08/19 08:18:54;;;;;;;1.58;1.48;;;;;;;;;;5046637;28;20222;-84
2023/08/19 08:21:22;;;;;;;1.63;1.52;;;;;;;;;;5039343;28;20204;-86
2023/08/19 08:23:54;;;;;;;1.60;1.40;;;;;;;;;;5031767;28;20226;-86
2023/08/19 08:26:23;;;;;;;1.27;1.27;;;;;;;;;;5033226;28;20189;-86
2023/08/19 08:29:08;;;;;;;;;;;;;;;;;;;;;
2023/08/19 08:31:36;;;;;;;1.90;1.80;;;;;;;;;;5033475;28;20207;-84
2023/08/19 08:34:07;;;;;;;1.67;1.58;;;;;;;;;;5032784;28;20282;-85
2023/08/19 08:36:39;;;;;;;1.55;1.55;;;;;;;;;;5033293;28;20350;-86
2023/08/19 08:39:11;;;;;;;1.20;1.20;;;;;;;;;;5033036;28;20362;-86
2023/08/19 08:41:41;;;;;;;2.35;1.73;;;;;;;;;;5031714;28;20215;-85
2023/08/19 08:44:11;;;;;;;1.63;1.52;;;;;;;;;;5033268;28;20268;-85
2023/08/19 08:46:40;;;;;;;1.00;1.00;;;;;;;;;;5024690;28;20651;-84
2023/08/19 08:49:09;;;;;;;1.50;1.50;;;;;;;;;;5012279;28;20197;-82
2023/08/19 08:51:38;;;;;;;1.70;1.60;;;;;;;;;;5013132;28;20265;-87
2023/08/19 08:54:07;;;;;;;1.23;1.23;;;;;;;;;;5013017;28;20207;-85
2023/08/19 08:56:41;;;;;;;1.60;1.60;;;;;;;;;;5012240;28;20552;-84
2023/08/19 08:59:10;;;;;;;1.60;1.60;;;;;;;;;;5018347;28;20189;-83
2023/08/19 09:01:38;;;;;;;1.42;1.42;;;;;;;;;;5016417;28;20631;-84
2023/08/19 09:04:09;;;;;;;1.30;1.30;;;;;;;;;;5015798;28;20216;-83
2023/08/19 09:06:40;;;;;;;1.85;1.23;;;;;;;;;;5031194;28;20209;-86
2023/08/19 09:09:10;;;;;;;1.20;1.20;;;;;;;;;;5030761;28;20294;-85
2023/08/19 09:11:41;;;;;;;1.50;1.40;;;;;;;;;;5032988;28;20220;-85
2023/08/19 09:14:14;;;;;;;1.02;1.02;;;;;;;;;;5036927;28;20196;-86
2023/08/19 09:16:43;;;;;;;1.25;1.23;;;;;;;;;;5034575;28;20240;-86
2023/08/19 09:19:14;;;;;;;1.50;1.40;;;;;;;;;;5043614;28;20190;-84
2023/08/19 09:21:44;;;;;;;1.63;1.52;;;;;;;;;;5052327;28;20203;-84
2023/08/19 09:24:16;;;;;;;1.10;1.10;;;;;;;;;;5052905;28;20250;-84
2023/08/19 09:26:58;;;;;;;1.48;0.98;;;;;;;;;;5048508;28;20520;-87
2023/08/19 09:29:27;;;;;;;0.75;0.75;;;;;;;;;;5052748;28;20192;-86
2023/08/19 09:32:02;;;;;;;1.13;1.13;;;;;;;;;;5032087;28;20236;-84
2023/08/19 09:34:32;;;;;;;1.05;1.05;;;;;;;;;;5032368;28;20219;-87
2023/08/19 09:37:04;;;;;;;4.53;1.65;;;;;;;;;;5033278;28;20256;-85
2023/08/19 09:39:38;;;;;;;1.15;1.15;;;;;;;;;;5032617;28;20254;-84
2023/08/19 09:42:10;;;;;;;1.20;1.20;;;;;;;;;;5031651;28;20230;-84
2023/08/19 09:44:41;;;;;;;2.50;1.10;;;;;;;;;;5031952;28;20189;-83
2023/08/19 09:47:10;;;;;;;0.90;0.90;;;;;;;;;;5033746;28;20192;-85
2023/08/19 09:49:38;;;;;;;1.00;1.00;;;;;;;;;;5032589;28;20211;-84
2023/08/19 09:52:18;;;;;;;1.25;1.25;;;;;;;;;;5033926;28;20200;-84
2023/08/19 09:54:52;;;;;;;3.35;1.05;;;;;;;;;;5037021;28;20191;-86
2023/08/19 09:57:33;;;;;;;1.00;1.00;;;;;;;;;;5039576;28;20344;-85
2023/08/19 10:00:03;;;;;;;1.30;1.30;;;;;;;;;;5030571;28;20195;-86
2023/08/19 10:02:31;;;;;;;0.95;0.95;;;;;;;;;;5030869;28;20595;-87
2023/08/19 10:05:01;;;;;;;0.77;0.77;;;;;;;;;;5030255;28;20197;-83
2023/08/19 10:07:33;;;;;;;2.47;1.30;;;;;;;;;;5031038;28;20507;-86
2023/08/19 10:10:06;;;;;;;1.25;1.23;;;;;;;;;;5030160;28;20432;-84
2023/08/19 10:12:40;;;;;;;1.20;1.10;;;;;;;;;;5029503;28;20779;-86
2023/08/19 10:15:12;;;;;;;1.30;1.20;;;;;;;;;;5029494;28;20207;-86
2023/08/19 10:17:42;;;;;;;1.13;1.13;;;;;;;;;;5028221;28;20239;-84
2023/08/19 10:20:13;;;;;;;1.20;1.10;;;;;;;;;;5029084;28;20291;-85
2023/08/19 10:22:43;;;;;;;0.98;0.98;;;;;;;;;;5029005;28;20287;-85
2023/08/19 10:25:13;;;;;;;1.25;1.25;;;;;;;;;;5028739;28;20215;-83
2023/08/19 10:27:43;;;;;;;1.80;1.70;;;;;;;;;;5028430;28;20215;-87
2023/08/19 10:30:31;;;;;;;0.90;0.90;;;;;;;;;;5030042;28;20283;-84
2023/08/19 10:33:04;;;;;;;1.02;1.02;;;;;;;;;;5029481;28;20202;-83
2023/08/19 10:35:52;;;;;;;1.10;1.10;;;;;;;;;;5029793;28;20207;-84
2023/08/19 10:38:20;;;;;;;1.40;1.25;;;;;;;;;;5029226;28;20199;-86
2023/08/19 10:41:03;;;;;;;1.48;1.08;;;;;;;;;;5029169;28;20200;-85
2023/08/19 10:46:37;;;;;;;1.05;1.05;;;;;;;;;;5045655;27;1822596;-86
2023/08/19 10:49:07;;;;;;;5.63;1.13;;;;;;;;;;5087633;28;20542;-85
2023/08/19 10:51:48;;;;;;;5.95;1.00;;;;;;;;;;5087438;28;20197;-85
2023/08/19 10:54:26;;;;;;;1.00;1.00;;;;;;;;;;5087483;28;20202;-84
2023/08/19 10:57:05;;;;;;;1.17;1.17;;;;;;;;;;5085997;28;20236;-85
2023/08/19 10:59:38;;;;;;;1.20;1.20;;;;;;;;;;5086155;28;20217;-84
2023/08/19 11:02:13;;;;;;;1.80;1.27;;;;;;;;;;5087239;28;20267;-85
2023/08/19 11:04:44;;;;;;;1.15;1.10;;;;;;;;;;5087190;28;20216;-86
2023/08/19 11:07:13;;;;;;;1.00;1.00;;;;;;;;;;5086809;28;20194;-84
2023/08/19 11:09:45;;;;;;;1.52;1.50;;;;;;;;;;5075523;28;20210;-87
2023/08/19 11:12:16;;;;;;;1.15;1.15;;;;;;;;;;5067455;28;20417;-85
2023/08/19 11:14:48;;;;;;;1.40;1.40;;;;;;;;;;5066987;28;20294;-85
2023/08/19 11:17:19;;;;;;;1.05;1.05;;;;;;;;;;5067082;28;20309;-86
2023/08/19 11:19:52;;;;;;;1.00;1.00;;;;;;;;;;5067708;28;20199;-84
2023/08/19 11:22:26;;;;;;;1.05;1.05;;;;;;;;;;5066926;28;20228;-85
2023/08/19 11:24:55;;;;;;;1.30;1.30;;;;;;;;;;5066276;28;20253;-85
2023/08/19 11:27:25;;;;;;;1.30;1.20;;;;;;;;;;5066916;28;20195;-84
2023/08/19 11:29:55;;;;;;;1.27;1.27;;;;;;;;;;5067696;28;20207;-86
2023/08/19 11:32:29;;;;;;;0.85;0.85;;;;;;;;;;5066615;28;20417;-84
2023/08/19 11:34:57;;;;;;;1.20;1.20;;;;;;;;;;5068190;28;20635;-84
2023/08/19 11:37:28;;;;;;;1.52;1.33;;;;;;;;;;5066677;28;20648;-84
2023/08/19 11:39:59;;;;;;;1.30;1.30;;;;;;;;;;5066376;28;20214;-83
2023/08/19 11:42:28;;;;;;;1.40;1.30;;;;;;;;;;5067637;28;20202;-84
2023/08/19 11:44:58;;;;;;;1.30;1.30;;;;;;;;;;5065678;28;20337;-83
2023/08/19 11:47:33;;;;;;;1.30;1.20;;;;;;;;;;5066890;28;20644;-85
2023/08/19 11:50:01;;;;;;;1.25;1.23;;;;;;;;;;5066101;28;20202;-84
2023/08/19 11:52:34;;;;;;;1.35;1.35;;;;;;;;;;5065251;28;20210;-84
2023/08/19 11:55:04;;;;;;;1.30;1.30;;;;;;;;;;5066695;28;20265;-84
2023/08/19 11:57:35;;;;;;;1.25;1.25;;;;;;;;;;5054202;28;20760;-83
2023/08/19 12:00:06;;;;;;;1.40;1.30;;;;;;;;;;5052205;28;20266;-85
2023/08/19 12:02:35;;;;;;;1.63;1.58;;;;;;;;;;5053392;28;20295;-86
2023/08/19 12:05:04;;;;;;;1.23;1.23;;;;;;;;;;5052866;28;20243;-85
2023/08/19 12:07:44;;;;;;;1.40;1.30;;;;;;;;;;5052497;28;20798;-84
2023/08/19 12:10:20;;;;;;;1.17;1.17;;;;;;;;;;5052046;28;20665;-85
2023/08/19 12:13:01;;;;;;;1.13;1.13;;;;;;;;;;5052116;28;20257;-84
2023/08/19 12:15:32;;;;;;;1.40;1.40;;;;;;;;;;5052044;28;20199;-84
2023/08/19 12:18:04;;;;;;;1.25;1.25;;;;;;;;;;5038543;28;20661;-84
2023/08/19 12:20:34;;;;;;;1.33;1.33;;;;;;;;;;5050163;28;20318;-86
2023/08/19 12:23:03;;;;;;;1.70;1.60;;;;;;;;;;5052011;28;20219;-85
2023/08/19 12:25:33;;;;;;;1.25;1.25;;;;;;;;;;5047990;28;20262;-85
2023/08/19 12:28:06;;;;;;;1.30;1.30;;;;;;;;;;5052420;28;20223;-85
2023/08/19 12:30:33;;;;;;;1.45;1.35;;;;;;;;;;5049450;28;20227;-88
2023/08/19 12:33:03;;;;;;;1.38;1.27;;;;;;;;;;5051418;28;20284;-84
2023/08/19 12:35:36;;;;;;;1.00;1.00;;;;;;;;;;5046305;28;20278;-84
2023/08/19 12:41:20;;;;;;;1.15;1.15;;;;;;;;;;5039838;28;20234;-84
2023/08/19 12:43:55;;;;;;;1.10;1.10;;;;;;;;;;5052499;28;20219;-83
2023/08/19 12:46:43;;;;;;;4.65;1.63;;;;;;;;;;5025276;28;20242;-85
2023/08/19 12:49:17;;;;;;;1.00;1.00;;;;;;;;;;5031398;28;20235;-84
2023/08/19 12:51:47;;;;;;;1.35;1.35;;;;;;;;;;5028583;28;20232;-84
2023/08/19 12:54:24;;;;;;;1.17;1.17;;;;;;;;;;5030957;28;20236;-84
2023/08/19 12:56:54;;;;;;;1.48;1.38;;;;;;;;;;5028497;28;20680;-83
2023/08/19 12:59:27;;;;;;;1.58;1.48;;;;;;;;;;5030500;28;20307;-84
2023/08/19 13:01:54;;;;;;;6.45;1.90;;;;;;;;;;5046667;28;20254;-83
2023/08/19 13:04:25;;;;;;;1.50;1.40;;;;;;;;;;5050714;28;20314;-85
2023/08/19 13:06:57;;;;;;;1.42;1.35;;;;;;;;;;5048137;28;20239;-85
2023/08/19 13:09:27;;;;;;;3.17;1.50;;;;;;;;;;5048832;28;20240;-84
2023/08/19 13:11:54;;;;;;;1.83;1.73;;;;;;;;;;5047827;28;20314;-83
2023/08/19 13:14:24;;;;;;;2.47;2.38;;;;;;;;;;5066518;28;20223;-85
2023/08/19 13:16:55;;;;;;;3.30;2.10;;;;;;;;;;5070740;28;20221;-85
2023/08/19 13:19:26;;;;;;;1.20;1.10;;;;;;;;;;5053081;28;20216;-85
2023/08/19 13:21:53;;;;;;;1.10;1.08;;;;;;;;;;5045962;28;20216;-85
2023/08/19 13:24:25;;;;;;;0.98;0.98;;;;;;;;;;5046770;28;20239;-84
2023/08/19 13:26:57;;;;;;;1.67;1.58;;;;;;;;;;5033331;28;20251;-86
2023/08/19 13:29:28;;;;;;;1.95;1.85;;;;;;;;;;5030928;28;20286;-85
2023/08/19 13:31:55;;;;;;;2.67;2.58;;;;;;;;;;5031496;28;20228;-84
2023/08/19 13:34:26;;;;;;;2.28;2.17;;;;;;;;;;5030989;28;20246;-84
2023/08/19 13:36:54;;;;;;;1.80;1.70;;;;;;;;;;5032175;28;20231;-86
2023/08/19 13:39:29;;;;;;;1.65;1.55;;;;;;;;;;5026633;28;20228;-87
2023/08/19 13:42:20;;;;;;;;;;;;;;;;;;;;;
2023/08/19 13:44:51;;;;;;;1.70;1.63;;;;;;;;;;5033998;28;20243;-85
2023/08/19 13:47:29;;;;;;;1.77;1.67;;;;;;;;;;5039916;28;20243;-87
2023/08/19 13:50:16;;;;;;;2.10;1.90;;;;;;;;;;5040028;28;20245;-85
2023/08/19 13:52:47;;;;;;;1.98;1.88;;;;;;;;;;5047305;28;20227;-85
2023/08/19 13:55:15;;;;;;;4.60;2.30;;;;;;;;;;5050200;28;20223;-86
2023/08/19 13:57:43;;;;;;;2.53;2.33;;;;;;;;;;5045523;28;20673;-85
2023/08/19 14:00:12;;;;;;;2.60;2.40;;;;;;;;;;5048405;28;20356;-85
2023/08/19 14:02:42;;;;;;;6.07;2.17;;;;;;;;;;5050507;28;20234;-83
2023/08/19 14:05:19;;;;;;;2.15;2.05;;;;;;;;;;5049991;28;20231;-86
2023/08/19 14:07:49;;;;;;;2.08;1.98;;;;;;;;;;5050465;28;20227;-85
2023/08/19 14:10:21;;;;;;;1.90;1.80;;;;;;;;;;5049410;28;20219;-87
2023/08/19 14:12:59;;;;;;;2.20;2.10;;;;;;;;;;5050705;28;20233;-86
2023/08/19 14:15:29;;;;;;;2.35;2.25;;;;;;;;;;5047684;28;20680;-85
2023/08/19 14:17:57;;;;;;;2.08;1.98;;;;;;;;;;5050448;28;20219;-85
2023/08/19 14:20:30;;;;;;;2.08;1.65;;;;;;;;;;5031883;28;20219;-83
2023/08/19 14:23:19;;;;;;;2.00;1.90;;;;;;;;;;5050935;28;20231;-84
2023/08/19 14:25:51;;;;;;;4.25;2.25;;;;;;;;;;5050509;28;20241;-85
2023/08/19 14:28:21;;;;;;;2.20;2.10;;;;;;;;;;5048478;28;20223;-85
2023/08/19 14:30:52;;;;;;;3.00;2.33;;;;;;;;;;5032215;28;20317;-85
2023/08/19 14:33:21;;;;;;;2.08;1.92;;;;;;;;;;5050433;28;20238;-86
2023/08/19 14:35:51;;;;;;;1.65;1.63;;;;;;;;;;5043133;28;20272;-85
2023/08/19 14:38:23;;;;;;;1.70;1.70;;;;;;;;;;5049259;28;20233;-86
2023/08/19 14:40:56;;;;;;;2.08;1.98;;;;;;;;;;5050174;28;20356;-84
2023/08/19 14:43:25;;;;;;;3.55;2.28;;;;;;;;;;5048627;28;20273;-86
2023/08/19 14:45:53;;;;;;;1.77;1.77;;;;;;;;;;5046691;28;20247;-84
2023/08/19 14:48:21;;;;;;;1.83;1.73;;;;;;;;;;5049994;28;20723;-83
2023/08/19 14:50:53;;;;;;;2.63;2.05;;;;;;;;;;5047368;28;20570;-84
2023/08/19 14:53:23;;;;;;;3.47;3.25;;;;;;;;;;5049540;28;20223;-84
2023/08/19 14:55:54;;;;;;;3.85;3.60;;;;;;;;;;5049910;28;20302;-84
2023/08/19 14:58:27;;;;;;;2.35;2.25;;;;;;;;;;5054666;28;20265;-86
2023/08/19 15:00:54;;;;;;;1.80;1.70;;;;;;;;;;5049091;28;20222;-84
2023/08/19 15:03:23;;;;;;;1.73;1.63;;;;;;;;;;5053732;28;20660;-85
2023/08/19 15:05:54;;;;;;;3.00;2.65;;;;;;;;;;5049113;28;20239;-84
2023/08/19 15:08:23;;;;;;;2.45;2.33;;;;;;;;;;5049046;28;20223;-85
2023/08/19 15:10:54;;;;;;;2.05;1.95;;;;;;;;;;5046870;28;20249;-85
2023/08/19 15:13:22;;;;;;;1.92;1.83;;;;;;;;;;5046484;28;20306;-84
2023/08/19 15:15:50;;;;;;;5.25;4.75;;;;;;;;;;5046508;28;20223;-85
2023/08/19 15:18:22;;;;;;;2.90;2.80;;;;;;;;;;5047660;28;20231;-85
2023/08/19 15:20:50;;;;;;;4.15;3.85;;;;;;;;;;5039080;28;20234;-85